createdAt,value
2023-05-15T00:04:44.489Z,11.33
2023-05-15T00:09:44.803Z,11.33
2023-05-15T00:29:58.186Z,11.44
2023-05-15T00:40:07.228Z,11.33
2023-05-15T00:45:08.385Z,11.34
2023-05-15T01:05:16.564Z,11.07
2023-05-15T01:10:17.389Z,11.00
2023-05-15T01:20:24.779Z,10.65
2023-05-15T01:45:37.037Z,9.87
2023-05-15T01:55:38.096Z,9.64
2023-05-15T02:05:43.113Z,9.51
2023-05-15T02:15:48.070Z,9.35
2023-05-15T02:20:51.249Z,9.27
2023-05-15T02:25:55.325Z,9.21
2023-05-15T02:30:59.691Z,9.14
2023-05-15T02:41:03.969Z,9.01
2023-05-15T02:46:08.118Z,8.92
2023-05-15T02:51:10.004Z,8.81
2023-05-15T03:01:14.886Z,8.58
2023-05-15T03:06:16.574Z,8.49
2023-05-15T03:11:17.339Z,8.48
2023-05-15T03:21:24.862Z,8.43
2023-05-15T03:26:26.025Z,8.46
2023-05-15T03:31:26.579Z,8.53
2023-05-15T03:36:29.063Z,8.63
2023-05-15T03:41:30.103Z,8.68
2023-05-15T03:46:30.138Z,8.77
2023-05-15T03:51:32.202Z,8.79
2023-05-15T03:56:32.658Z,8.85
2023-05-15T04:21:37.663Z,9.45
2023-05-15T04:31:41.807Z,10.18
2023-05-15T04:36:45.225Z,10.68
2023-05-15T04:51:50.964Z,11.58
2023-05-15T05:11:58.054Z,12.79
2023-05-15T05:22:02.807Z,13.96
2023-05-15T05:27:04.599Z,13.91
2023-05-15T05:32:09.314Z,16.37
2023-05-15T05:42:18.204Z,26.55
2023-05-15T05:47:18.843Z,28.04
2023-05-15T05:52:20.629Z,29.92
2023-05-15T06:17:30.767Z,30.99
2023-05-15T06:32:39.013Z,28.44
2023-05-15T06:37:43.318Z,28.61
2023-05-15T06:52:47.561Z,27.29
2023-05-15T06:57:49.121Z,27.94
2023-05-15T07:07:50.629Z,25.37
2023-05-15T07:12:51.487Z,25.90
2023-05-15T07:22:57.889Z,25.97
2023-05-15T07:33:01.972Z,28.01
2023-05-15T07:38:05.184Z,28.30
2023-05-15T07:48:13.719Z,30.65
2023-05-15T08:08:22.482Z,28.93
2023-05-15T08:13:22.795Z,27.40
2023-05-15T08:18:23.454Z,25.94
2023-05-15T08:33:30.695Z,23.58
2023-05-15T09:08:41.808Z,20.67
2023-05-15T09:28:54.009Z,21.39
2023-05-15T09:49:04.655Z,20.49
2023-05-15T09:54:05.320Z,20.83
2023-05-15T09:59:10.132Z,20.37
2023-05-15T10:04:13.266Z,20.46
2023-05-15T10:19:18.696Z,20.03
2023-05-15T10:24:19.384Z,19.79
2023-05-15T10:39:27.073Z,20.20
2023-05-15T10:49:31.660Z,20.31
2023-05-15T11:04:41.622Z,21.34
2023-05-15T11:09:42.635Z,21.05
2023-05-15T11:14:46.980Z,21.42
2023-05-15T11:34:57.674Z,21.70
2023-05-15T11:55:06.156Z,21.24
2023-05-15T12:00:06.174Z,20.93
2023-05-15T12:05:09.550Z,20.61
2023-05-15T12:10:14.018Z,20.38
2023-05-15T12:20:21.032Z,20.23
2023-05-15T12:30:23.596Z,20.05
2023-05-15T12:35:24.968Z,19.77
2023-05-15T12:40:26.725Z,19.34
2023-05-15T12:45:29.862Z,19.12
2023-05-15T12:55:32.466Z,19.34
2023-05-15T13:00:33.770Z,19.58
2023-05-15T13:20:41.740Z,20.93
2023-05-15T13:30:44.795Z,19.99
2023-05-15T13:40:48.700Z,20.38
2023-05-15T13:45:52.582Z,20.39
2023-05-15T13:55:55.508Z,19.75
2023-05-15T14:06:01.618Z,18.10
2023-05-15T14:16:09.302Z,18.25
2023-05-15T14:21:13.803Z,18.35
2023-05-15T14:31:14.536Z,18.92
2023-05-15T14:51:21.736Z,19.86
2023-05-15T15:11:26.546Z,19.18
2023-05-15T15:21:28.611Z,18.69
2023-05-15T15:26:28.635Z,18.46
2023-05-15T15:31:30.664Z,18.58
2023-05-15T15:36:32.951Z,18.13
2023-05-15T15:46:33.713Z,17.80
2023-05-15T15:51:37.460Z,17.94
2023-05-15T15:56:38.320Z,17.93
2023-05-15T16:16:43.493Z,18.24
2023-05-15T16:26:45.005Z,18.39
2023-05-15T16:31:48.518Z,18.36
2023-05-15T16:36:48.780Z,18.33
2023-05-15T16:41:49.589Z,18.26
2023-05-15T16:51:53.169Z,18.32
2023-05-15T17:01:53.767Z,17.82
2023-05-15T17:06:55.647Z,17.82
2023-05-15T17:11:55.956Z,17.85
2023-05-15T17:25:00.064Z,17.77
2023-05-15T17:30:01.277Z,17.60
2023-05-15T17:40:04.461Z,17.37
2023-05-15T17:45:06.436Z,17.10
2023-05-15T17:50:08.417Z,16.81
2023-05-15T18:00:12.177Z,16.31
2023-05-15T18:05:13.592Z,16.13
2023-05-15T18:10:14.569Z,15.97
2023-05-15T18:25:16.619Z,15.83
2023-05-15T18:35:21.534Z,15.54
2023-05-15T18:45:22.919Z,15.10
2023-05-15T19:00:38.451Z,14.97
2023-05-15T19:10:40.211Z,14.88
2023-05-15T19:15:40.196Z,14.91
2023-05-15T19:20:42.020Z,14.93
2023-05-15T19:25:43.509Z,14.96
2023-05-15T19:55:54.783Z,14.95
2023-05-15T20:05:57.314Z,14.89
2023-05-15T20:21:04.335Z,14.55
2023-05-15T20:26:07.680Z,14.29
2023-05-15T20:56:21.855Z,13.29
2023-05-15T21:01:22.136Z,13.18
2023-05-15T21:06:22.919Z,13.16
2023-05-15T21:21:33.626Z,13.24
2023-05-15T21:31:43.110Z,13.31
2023-05-15T21:36:47.664Z,13.20
2023-05-15T21:46:56.600Z,12.92
2023-05-15T21:52:01.198Z,12.66
2023-05-15T22:17:11.562Z,11.86
2023-05-15T22:22:13.030Z,11.75
2023-05-15T22:32:20.222Z,11.50
2023-05-15T22:45:32.680Z,11.25
2023-05-15T23:05:46.559Z,10.85
2023-05-15T23:10:47.181Z,10.78
2023-05-15T23:25:54.617Z,10.58
2023-05-15T23:46:11.253Z,10.37
2023-05-15T23:51:16.032Z,10.33
2023-05-15T23:56:19.784Z,10.28
